Terminal Aerodrome Forecast
Issued by NWS

Home | Current Version | Previous Version | Graphics & Text | Print | Product List | Glossary On
Versions: 1 2 3 4 5 6 7 8 9 10 11 12 13
886
FTUS43 KMPX 280520
TAFRWF
TAF
KRWF 280520Z 2806/2906 22005KT P6SM SCT120 SCT250
     FM281000 28008KT P6SM SCT100
     FM281400 31014KT P6SM FEW050
     FM281600 31017G27KT P6SM SCT050
     FM290100 30007KT P6SM SCT060=

USA.gov is the U.S. government's official web portal to all federal, state and local government web resources and services.